Time;durP1;ratioP1;P1;durP2;ratioP2;P2;SDS_P1;SDS_P2;PMS_P1;PMS_P2;Temp;Humidity;BMP_temperature;BMP_pressure;BME280_temperature;BME280_humidity;BME280_pressure;Samples;Min_cycle;Max_cycle;Signal;HPM_P1;HPM_P2
2023/04/03 00:00:08;;;;;;;5.70;1.63;;;2.20;99.90;;;;;;5037508;28;20056;-85
2023/04/03 00:02:34;;;;;;;4.90;1.48;;;2.10;99.90;;;;;;5020894;28;20114;-86
2023/04/03 00:05:00;;;;;;;5.45;1.60;;;2.10;99.90;;;;;;5038270;28;20053;-86
2023/04/03 00:07:26;;;;;;;4.40;1.50;;;2.10;99.90;;;;;;5054535;28;20110;-85
2023/04/03 00:09:52;;;;;;;3.05;1.30;;;1.10;99.90;;;;;;5036657;28;20127;-86
2023/04/03 00:12:18;;;;;;;4.18;1.50;;;2.10;99.90;;;;;;5036154;28;20131;-86
2023/04/03 00:14:43;;;;;;;5.22;1.52;;;2.10;99.90;;;;;;5020348;28;20158;-85
2023/04/03 00:17:09;;;;;;;4.45;1.40;;;2.00;99.90;;;;;;5052686;28;20049;-85
2023/04/03 00:19:35;;;;;;;4.18;1.40;;;2.10;99.90;;;;;;5052585;28;20049;-85
2023/04/03 00:22:01;;;;;;;4.93;1.70;;;2.00;99.90;;;;;;5052945;28;20440;-82
2023/04/03 00:24:27;;;;;;;5.18;1.50;;;2.20;99.90;;;;;;5036686;28;20075;-82
2023/04/03 00:26:52;;;;;;;5.13;1.50;;;2.00;99.90;;;;;;5053297;28;20397;-82
2023/04/03 00:29:18;;;;;;;3.80;1.40;;;2.00;99.90;;;;;;5020063;28;20048;-83
2023/04/03 00:31:45;;;;;;;4.90;1.58;;;1.90;99.90;;;;;;5053465;28;20049;-83
2023/04/03 00:34:10;;;;;;;4.97;1.60;;;2.00;99.90;;;;;;5036770;28;20044;-83
2023/04/03 00:36:39;;;;;;;4.60;1.50;;;2.10;99.90;;;;;;5020050;28;20053;-83
2023/04/03 00:39:05;;;;;;;4.85;1.42;;;2.00;99.90;;;;;;5038056;28;20045;-83
2023/04/03 00:41:31;;;;;;;5.13;1.42;;;2.00;99.90;;;;;;5056945;28;20049;-83
2023/04/03 00:43:58;;;;;;;4.00;1.35;;;2.00;99.90;;;;;;5056854;28;20045;-83
2023/04/03 00:46:24;;;;;;;4.53;1.45;;;2.00;99.90;;;;;;5056906;28;20128;-83
2023/04/03 00:48:50;;;;;;;4.97;1.52;;;2.00;99.90;;;;;;5040537;28;20140;-83
2023/04/03 00:51:34;;;;;;;5.15;1.70;;;2.00;99.90;;;;;;5056870;28;20099;-83
2023/04/03 00:54:04;;;;;;;5.15;1.63;;;2.00;99.90;;;;;;5056334;28;20080;-83
2023/04/03 00:56:32;;;;;;;6.45;1.48;;;1.90;99.90;;;;;;5056705;28;20091;-83
2023/04/03 00:59:12;;;;;;;4.20;1.50;;;1.90;99.90;;;;;;5057085;28;20048;-82
2023/04/03 01:01:38;;;;;;;5.03;1.50;;;1.90;99.90;;;;;;5056475;28;20048;-82
2023/04/03 01:04:05;;;;;;;5.20;1.65;;;1.90;99.90;;;;;;5056716;28;20053;-82
2023/04/03 01:06:37;;;;;;;5.72;1.60;;;1.90;99.90;;;;;;5056256;28;20049;-83
2023/04/03 01:09:04;;;;;;;6.45;1.75;;;1.80;99.90;;;;;;5056620;28;20090;-83
2023/04/03 01:11:30;;;;;;;5.68;1.73;;;1.80;99.90;;;;;;5056088;28;20048;-82
2023/04/03 01:13:55;;;;;;;5.22;1.80;;;1.70;99.90;;;;;;5040348;28;20053;-83
2023/04/03 01:16:21;;;;;;;5.80;1.67;;;1.70;99.90;;;;;;5039911;28;20135;-82
2023/04/03 01:18:47;;;;;;;4.95;1.60;;;1.70;99.90;;;;;;5056033;28;20395;-83
2023/04/03 01:22:09;;;;;;;5.85;1.80;;;1.70;99.90;;;;;;5023043;28;20053;-82
2023/04/03 01:24:38;;;;;;;6.80;1.90;;;1.70;99.90;;;;;;5022839;28;20060;-82
2023/04/03 01:27:06;;;;;;;5.22;1.60;;;1.60;99.90;;;;;;5056604;28;20080;-82
2023/04/03 01:29:33;;;;;;;6.38;1.73;;;1.70;99.90;;;;;;5055939;28;20049;-83
2023/04/03 01:32:01;;;;;;;5.00;1.70;;;1.60;99.90;;;;;;5039523;28;20370;-82
2023/04/03 01:34:28;;;;;;;6.40;1.70;;;1.60;99.90;;;;;;5056363;28;20041;-82
2023/04/03 01:36:54;;;;;;;6.57;1.90;;;1.60;99.90;;;;;;5055426;28;20045;-82
2023/04/03 01:39:20;;;;;;;5.53;1.98;;;1.60;99.90;;;;;;5023064;28;20583;-82
2023/04/03 01:41:46;;;;;;;5.78;1.65;;;1.50;99.90;;;;;;5056146;28;20080;-83
2023/04/03 01:44:12;;;;;;;6.45;1.70;;;1.50;99.90;;;;;;5022894;28;20485;-83
2023/04/03 01:46:38;;;;;;;6.68;1.80;;;0.70;99.90;;;;;;5039604;28;20088;-82
2023/04/03 01:49:04;;;;;;;6.07;2.00;;;1.50;99.90;;;;;;5055887;28;20056;-82
2023/04/03 01:51:30;;;;;;;6.25;1.77;;;1.40;99.90;;;;;;5035464;28;20049;-82
2023/04/03 01:53:56;;;;;;;4.95;1.77;;;1.40;99.90;;;;;;5018944;28;20049;-82
2023/04/03 01:56:23;;;;;;;6.10;1.60;;;2.20;99.90;;;;;;5019774;28;20041;-82
2023/04/03 01:58:49;;;;;;;5.22;1.73;;;1.40;99.90;;;;;;5018806;28;20049;-82
2023/04/03 02:01:15;;;;;;;6.18;2.00;;;1.40;99.90;;;;;;5019367;28;20098;-82
2023/04/03 02:03:41;;;;;;;5.82;1.65;;;1.30;99.90;;;;;;5035880;28;20128;-82
2023/04/03 02:06:06;;;;;;;5.53;1.92;;;1.20;99.90;;;;;;5019348;28;20046;-82
2023/04/03 02:08:32;;;;;;;4.90;1.80;;;1.20;99.90;;;;;;5002657;28;20053;-82
2023/04/03 02:10:58;;;;;;;6.07;1.80;;;1.20;99.90;;;;;;5002900;28;20049;-83
2023/04/03 02:13:24;;;;;;;6.22;1.95;;;1.20;99.90;;;;;;5002935;28;20101;-83
2023/04/03 02:15:50;;;;;;;6.05;1.83;;;1.20;99.90;;;;;;5035133;28;20091;-83
2023/04/03 02:18:16;;;;;;;7.72;2.00;;;0.20;99.90;;;;;;5035337;28;20046;-82
2023/04/03 02:20:42;;;;;;;8.65;2.03;;;1.20;99.90;;;;;;5035495;28;20049;-82
2023/04/03 02:23:08;;;;;;;6.50;1.90;;;1.20;99.90;;;;;;5034905;28;20084;-82
2023/04/03 02:25:39;;;;;;;7.00;1.85;;;1.50;99.90;;;;;;5034829;28;20102;-82
2023/04/03 02:28:05;;;;;;;6.60;1.92;;;1.10;99.90;;;;;;5035481;28;20041;-83
2023/04/03 02:30:31;;;;;;;6.90;2.00;;;1.10;99.90;;;;;;5002299;28;20046;-82
2023/04/03 02:32:57;;;;;;;8.18;1.95;;;1.10;99.90;;;;;;5002154;28;20080;-82
2023/04/03 02:35:23;;;;;;;6.18;2.00;;;1.10;99.90;;;;;;5002441;28;20053;-82
2023/04/03 02:37:48;;;;;;;5.57;2.10;;;1.10;99.90;;;;;;5018653;28;20049;-82
2023/04/03 02:40:14;;;;;;;7.45;2.35;;;0.90;99.90;;;;;;5002372;28;20042;-84
2023/04/03 02:42:40;;;;;;;6.97;2.15;;;0.90;99.90;;;;;;5018757;28;20053;-82
2023/04/03 02:45:06;;;;;;;5.80;1.80;;;1.70;99.90;;;;;;5018575;28;20108;-82
2023/04/03 02:47:32;;;;;;;6.95;2.30;;;0.80;99.90;;;;;;5034478;28;20053;-83
2023/04/03 02:49:58;;;;;;;6.40;2.00;;;0.70;99.90;;;;;;5034397;28;20049;-82
2023/04/03 02:52:26;;;;;;;7.18;2.25;;;0.80;99.90;;;;;;5026058;28;20071;-81
2023/04/03 02:54:52;;;;;;;5.47;2.00;;;0.80;99.90;;;;;;5038228;28;20060;-82
2023/04/03 02:57:19;;;;;;;6.45;2.00;;;0.90;99.90;;;;;;5021342;28;20049;-81
2023/04/03 02:59:45;;;;;;;7.75;2.20;;;0.70;99.90;;;;;;5054447;28;20056;-81
2023/04/03 03:02:11;;;;;;;8.43;2.10;;;0.60;99.90;;;;;;5037856;28;20041;-82
2023/04/03 03:04:37;;;;;;;7.53;2.10;;;0.60;99.90;;;;;;5020908;28;20041;-81
2023/04/03 03:07:07;;;;;;;6.82;2.28;;;0.60;99.90;;;;;;5037374;28;20037;-82
2023/04/03 03:09:33;;;;;;;6.10;2.35;;;0.70;99.90;;;;;;5053812;28;20095;-82
2023/04/03 03:11:59;;;;;;;7.57;2.22;;;0.70;99.90;;;;;;5053603;28;20497;-81
2023/04/03 03:14:25;;;;;;;7.72;2.30;;;0.70;99.90;;;;;;5021009;28;20048;-82
2023/04/03 03:16:51;;;;;;;6.82;2.53;;;0.70;99.90;;;;;;5020230;28;20044;-80
2023/04/03 03:19:17;;;;;;;6.65;2.13;;;0.60;99.90;;;;;;5037293;28;20041;-81
2023/04/03 03:21:44;;;;;;;6.53;2.47;;;0.70;99.90;;;;;;5037571;28;20063;-81
2023/04/03 03:24:09;;;;;;;7.18;2.40;;;0.60;99.90;;;;;;5004604;28;20591;-81
2023/04/03 03:26:35;;;;;;;7.00;2.30;;;0.60;99.90;;;;;;5053881;28;20139;-82
2023/04/03 03:29:02;;;;;;;11.30;2.70;;;0.50;99.90;;;;;;5020873;28;20127;-80
2023/04/03 03:31:27;;;;;;;9.27;2.90;;;0.60;99.90;;;;;;5053588;28;20080;-81
2023/04/03 03:33:53;;;;;;;6.88;2.60;;;0.50;99.90;;;;;;5053438;28;20090;-81
2023/04/03 03:36:19;;;;;;;8.15;2.90;;;0.50;99.90;;;;;;5020341;28;20064;-81
2023/04/03 03:38:45;;;;;;;8.50;3.10;;;0.50;99.90;;;;;;5053055;28;20045;-81
2023/04/03 03:41:10;;;;;;;7.90;2.80;;;0.50;99.90;;;;;;5070481;28;20135;-82
2023/04/03 03:43:36;;;;;;;9.60;2.67;;;0.50;99.90;;;;;;5036975;28;20485;-82
2023/04/03 03:46:02;;;;;;;8.35;3.05;;;0.50;99.90;;;;;;5020833;28;20048;-81
2023/04/03 03:48:28;;;;;;;9.23;2.92;;;0.40;99.90;;;;;;5020947;28;20118;-82
2023/04/03 03:50:54;;;;;;;8.05;2.67;;;0.50;99.90;;;;;;5037179;28;20087;-82
2023/04/03 03:53:19;;;;;;;7.68;2.60;;;0.40;99.90;;;;;;5019400;28;20061;-81
2023/04/03 03:55:49;;;;;;;7.93;2.42;;;0.40;99.90;;;;;;5053497;28;20044;-82
2023/04/03 03:58:15;;;;;;;7.68;2.72;;;0.40;99.90;;;;;;5070159;28;20072;-81
2023/04/03 04:00:40;;;;;;;8.18;2.70;;;0.30;99.90;;;;;;5020251;28;20489;-81
2023/04/03 04:03:06;;;;;;;6.35;2.60;;;0.20;99.90;;;;;;5053608;28;20080;-81
2023/04/03 04:05:32;;;;;;;8.02;2.60;;;0.20;99.90;;;;;;5036572;28;20051;-82
2023/04/03 04:07:58;;;;;;;8.15;2.50;;;0.10;99.90;;;;;;5020195;28;20049;-81
2023/04/03 04:10:23;;;;;;;7.82;2.60;;;0.10;99.90;;;;;;5020168;28;20071;-81
2023/04/03 04:12:51;;;;;;;8.50;2.80;;;0.10;99.90;;;;;;5053315;28;20143;-81
2023/04/03 04:15:17;;;;;;;7.68;2.72;;;0.10;99.90;;;;;;5020133;28;20060;-80
2023/04/03 04:17:42;;;;;;;7.82;3.08;;;0.10;99.90;;;;;;5036863;28;20053;-80
2023/04/03 04:20:08;;;;;;;10.48;2.97;;;0.10;99.90;;;;;;5052824;28;20137;-81
2023/04/03 04:22:34;;;;;;;7.95;2.67;;;0.00;99.90;;;;;;5052937;28;20084;-81
2023/04/03 04:25:03;;;;;;;9.40;3.08;;;0.00;99.90;;;;;;5019734;28;20519;-80
2023/04/03 04:27:29;;;;;;;8.90;3.35;;;0.00;99.90;;;;;;5036432;28;20045;-80
2023/04/03 04:29:54;;;;;;;10.02;3.47;;;0.00;99.90;;;;;;5036006;28;20047;-80
2023/04/03 04:32:20;;;;;;;7.28;2.88;;;-0.10;99.90;;;;;;5036177;28;20053;-80
2023/04/03 04:34:46;;;;;;;8.45;3.00;;;-0.10;99.90;;;;;;5036007;28;20077;-80
2023/04/03 04:37:12;;;;;;;8.20;2.80;;;-0.10;99.90;;;;;;5052550;28;20049;-80
2023/04/03 04:39:38;;;;;;;7.97;3.08;;;-0.10;99.90;;;;;;5036077;28;20049;-80
2023/04/03 04:42:03;;;;;;;7.85;2.95;;;-0.10;99.90;;;;;;5052233;28;20436;-80
2023/04/03 04:44:29;;;;;;;8.70;3.05;;;-0.20;99.90;;;;;;5035876;28;20056;-81
2023/04/03 04:46:55;;;;;;;8.82;2.90;;;0.60;99.90;;;;;;5035723;28;20140;-80
2023/04/03 04:49:21;;;;;;;8.48;3.22;;;0.30;99.90;;;;;;5035566;28;20094;-81
2023/04/03 04:51:47;;;;;;;10.05;4.40;;;-0.20;99.90;;;;;;5035592;28;20051;-79
2023/04/03 04:54:12;;;;;;;21.08;11.80;;;-0.20;99.90;;;;;;5018827;28;20439;-79
2023/04/03 04:56:38;;;;;;;36.67;20.60;;;-0.10;99.90;;;;;;5068995;28;20056;-81
2023/04/03 04:59:04;;;;;;;21.48;11.95;;;0.80;99.90;;;;;;5019444;28;20048;-80
2023/04/03 05:01:30;;;;;;;18.90;10.18;;;-0.20;99.90;;;;;;5052214;28;20049;-80
2023/04/03 05:03:56;;;;;;;18.83;9.73;;;-0.20;99.90;;;;;;5035570;28;20131;-81
2023/04/03 05:06:22;;;;;;;9.70;4.00;;;-0.30;99.90;;;;;;5018921;28;20055;-80
2023/04/03 05:08:47;;;;;;;8.23;3.45;;;-0.30;99.90;;;;;;5035565;28;20052;-80
2023/04/03 05:11:13;;;;;;;11.07;3.58;;;-0.20;99.90;;;;;;5051919;28;20135;-81
2023/04/03 05:13:39;;;;;;;9.20;4.03;;;-0.30;99.90;;;;;;5052256;28;20057;-80
2023/04/03 05:16:05;;;;;;;9.57;3.42;;;-0.20;99.90;;;;;;5019194;28;20098;-80
2023/04/03 05:18:30;;;;;;;8.90;3.65;;;-0.20;99.90;;;;;;5019025;28;20063;-80
2023/04/03 05:20:57;;;;;;;11.25;5.22;;;-0.20;99.90;;;;;;5068764;28;20055;-80
2023/04/03 05:23:23;;;;;;;9.77;3.60;;;-0.20;99.90;;;;;;5018680;28;20051;-80
2023/04/03 05:25:49;;;;;;;9.90;4.60;;;-0.20;99.90;;;;;;5052831;28;20109;-80
2023/04/03 05:28:14;;;;;;;8.65;3.80;;;0.60;99.90;;;;;;5039037;28;20370;-80
2023/04/03 05:30:40;;;;;;;16.27;9.27;;;-0.20;99.90;;;;;;5038931;28;20132;-80
2023/04/03 05:33:06;;;;;;;12.10;5.60;;;-0.20;99.90;;;;;;5055175;28;20059;-80
2023/04/03 05:35:35;;;;;;;10.85;4.95;;;-0.10;99.90;;;;;;5022563;28;20049;-81
2023/04/03 05:38:01;;;;;;;10.50;5.03;;;-0.10;99.90;;;;;;5039235;28;20052;-81
2023/04/03 05:40:27;;;;;;;13.25;4.88;;;-0.10;99.90;;;;;;5055360;28;20496;-80
2023/04/03 05:42:53;;;;;;;10.70;5.30;;;-0.10;99.90;;;;;;5055516;28;20041;-80
2023/04/03 05:45:19;;;;;;;13.00;5.57;;;-0.10;99.90;;;;;;5006509;28;20132;-80
2023/04/03 05:47:48;;;;;;;11.75;5.72;;;-0.10;99.90;;;;;;5055287;28;20047;-79
2023/04/03 05:50:14;;;;;;;16.42;10.07;;;-0.10;99.90;;;;;;5038828;28;20575;-80
2023/04/03 05:52:44;;;;;;;9.57;4.40;;;0.20;99.90;;;;;;5054827;28;20064;-80
2023/04/03 05:55:10;;;;;;;11.05;4.95;;;0.00;99.90;;;;;;5055405;28;20045;-79
2023/04/03 05:57:36;;;;;;;12.32;4.50;;;0.10;99.90;;;;;;5055165;28;20563;-80
2023/04/03 06:00:05;;;;;;;10.02;4.65;;;0.20;99.90;;;;;;5038461;28;20060;-79
2023/04/03 06:02:31;;;;;;;10.88;3.90;;;0.40;99.90;;;;;;5055116;28;20378;-80
2023/04/03 06:04:57;;;;;;;11.07;4.90;;;0.50;99.90;;;;;;5038597;28;20508;-80
2023/04/03 06:07:28;;;;;;;9.55;4.18;;;1.30;99.90;;;;;;5038357;28;20045;-80
2023/04/03 06:09:55;;;;;;;10.55;4.45;;;0.60;99.90;;;;;;5054817;28;20085;-80
2023/04/03 06:12:22;;;;;;;9.18;3.85;;;0.60;99.90;;;;;;5054486;28;20041;-79
2023/04/03 06:14:48;;;;;;;11.00;3.63;;;1.00;99.90;;;;;;5055043;28;20098;-79
2023/04/03 06:17:17;;;;;;;16.27;3.60;;;1.10;99.90;;;;;;5054543;28;20044;-79
2023/04/03 06:19:47;;;;;;;9.85;3.58;;;1.20;99.90;;;;;;5054780;28;20075;-79
2023/04/03 06:22:13;;;;;;;10.00;3.25;;;1.90;99.90;;;;;;5054195;28;20044;-79
2023/04/03 06:24:40;;;;;;;8.00;3.03;;;2.20;99.90;;;;;;5037607;28;20500;-79
2023/04/03 06:27:05;;;;;;;7.10;2.70;;;2.60;99.90;;;;;;5054692;28;20045;-79
2023/04/03 06:29:31;;;;;;;8.38;2.65;;;3.10;99.90;;;;;;5054567;28;20560;-79
2023/04/03 06:31:57;;;;;;;6.72;2.58;;;3.60;99.90;;;;;;5037860;28;20401;-78
2023/04/03 06:34:29;;;;;;;9.40;2.50;;;4.00;99.90;;;;;;5038055;28;20049;-79
2023/04/03 06:36:55;;;;;;;7.47;2.80;;;4.50;99.90;;;;;;5054153;28;20053;-79
2023/04/03 06:39:25;;;;;;;7.60;2.42;;;4.40;99.90;;;;;;5054225;28;20037;-79
2023/04/03 06:41:51;;;;;;;8.57;2.72;;;5.10;99.90;;;;;;5054266;28;20044;-78
2023/04/03 06:44:17;;;;;;;8.18;2.55;;;6.10;99.90;;;;;;5054153;28;20116;-79
2023/04/03 06:46:46;;;;;;;8.85;2.30;;;6.00;99.90;;;;;;5037594;28;20059;-79
2023/04/03 06:49:12;;;;;;;5.88;2.00;;;5.80;99.90;;;;;;5054299;28;20057;-79
2023/04/03 06:51:38;;;;;;;7.82;2.25;;;6.00;99.90;;;;;;5054091;28;20084;-80
2023/04/03 06:54:12;;;;;;;7.47;2.25;;;6.40;99.90;;;;;;5020899;28;20049;-79
2023/04/03 06:56:38;;;;;;;6.15;2.00;;;6.60;99.90;;;;;;5054226;28;20045;-78
2023/04/03 06:59:04;;;;;;;7.35;2.08;;;6.80;99.90;;;;;;5054133;28;20045;-79
2023/04/03 07:01:30;;;;;;;3.92;1.42;;;6.80;99.90;;;;;;5053978;28;20400;-80
2023/04/03 07:03:57;;;;;;;8.13;2.13;;;6.90;99.90;;;;;;5053851;28;20048;-80
2023/04/03 07:06:23;;;;;;;7.28;2.00;;;6.50;99.90;;;;;;5053372;28;20071;-80
2023/04/03 07:08:49;;;;;;;6.38;2.08;;;6.60;99.90;;;;;;5037285;28;20484;-80
2023/04/03 07:11:15;;;;;;;7.72;2.22;;;6.40;99.80;;;;;;5053897;28;20067;-79
2023/04/03 07:13:41;;;;;;;7.93;2.20;;;7.00;99.90;;;;;;5054195;28;20049;-80
2023/04/03 07:16:08;;;;;;;7.53;2.30;;;7.10;99.90;;;;;;5036770;28;20369;-80
2023/04/03 07:18:34;;;;;;;7.55;2.00;;;7.50;99.90;;;;;;5053850;28;20064;-80
2023/04/03 07:21:04;;;;;;;6.95;1.80;;;7.20;99.40;;;;;;5053924;28;20091;-81
2023/04/03 07:23:29;;;;;;;7.55;2.00;;;7.50;99.30;;;;;;5037640;28;20096;-81
2023/04/03 07:25:55;;;;;;;6.93;2.20;;;7.30;99.30;;;;;;5037676;28;20115;-80
2023/04/03 07:28:22;;;;;;;6.93;1.80;;;7.40;99.20;;;;;;5021102;28;20052;-80
2023/04/03 07:31:00;;;;;;;6.68;1.70;;;7.10;98.10;;;;;;5053811;28;20059;-80
2023/04/03 07:33:26;;;;;;;8.13;1.80;;;6.70;99.80;;;;;;5038460;28;20116;-81
2023/04/03 07:35:52;;;;;;;4.68;1.45;;;7.00;99.90;;;;;;5037019;28;20037;-81
2023/04/03 07:38:18;;;;;;;5.78;1.98;;;6.80;98.80;;;;;;5053915;28;20053;-81
2023/04/03 07:40:48;;;;;;;7.75;2.20;;;7.70;99.90;;;;;;5036976;28;20067;-81
2023/04/03 07:43:15;;;;;;;7.25;1.85;;;6.70;99.90;;;;;;5053788;28;20049;-80
2023/04/03 07:45:44;;;;;;;7.57;1.80;;;6.50;98.40;;;;;;5053354;28;20049;-80
2023/04/03 07:48:12;;;;;;;6.20;1.50;;;6.10;99.40;;;;;;5053485;28;20049;-81
2023/04/03 07:50:40;;;;;;;7.43;1.90;;;6.00;99.50;;;;;;5053483;28;20048;-81
2023/04/03 07:53:07;;;;;;;5.38;1.70;;;6.00;99.90;;;;;;5053658;28;20456;-80
2023/04/03 07:55:33;;;;;;;6.57;1.70;;;6.20;99.90;;;;;;5037815;28;20497;-81
2023/04/03 07:57:59;;;;;;;7.85;2.00;;;6.30;99.90;;;;;;5020817;28;20106;-81
2023/04/03 08:00:25;;;;;;;8.23;1.90;;;6.20;99.90;;;;;;5036522;28;20143;-80
2023/04/03 08:02:51;;;;;;;5.95;1.65;;;6.50;99.90;;;;;;5053406;28;20060;-81
2023/04/03 08:05:21;;;;;;;6.68;1.98;;;6.50;99.90;;;;;;5053229;28;20057;-82
2023/04/03 08:07:48;;;;;;;7.88;1.88;;;6.40;99.90;;;;;;5053334;28;20045;-81
2023/04/03 08:10:15;;;;;;;6.25;1.50;;;6.40;98.10;;;;;;5036757;28;20056;-81
2023/04/03 08:12:41;;;;;;;6.47;1.70;;;6.20;97.70;;;;;;4952210;28;20513;-82
2023/04/03 08:15:08;;;;;;;5.18;1.60;;;6.10;99.00;;;;;;5017486;28;20081;-82
2023/04/03 08:17:34;;;;;;;4.43;1.38;;;6.10;98.80;;;;;;5017168;28;20049;-82
2023/04/03 08:20:01;;;;;;;5.55;1.50;;;6.20;99.00;;;;;;5017063;28;20052;-82
2023/04/03 08:22:26;;;;;;;6.43;1.48;;;6.20;98.40;;;;;;5033223;28;20049;-81
2023/04/03 08:24:52;;;;;;;5.75;1.50;;;6.20;98.60;;;;;;5016569;28;20052;-81
2023/04/03 08:27:18;;;;;;;6.47;1.50;;;6.30;96.90;;;;;;5016913;28;20407;-82
2023/04/03 08:29:44;;;;;;;6.40;1.60;;;6.40;97.80;;;;;;5001126;28;20156;-82
2023/04/03 08:32:10;;;;;;;4.93;1.48;;;6.50;98.50;;;;;;4984407;28;20060;-82
2023/04/03 08:34:39;;;;;;;4.60;1.40;;;6.60;97.00;;;;;;5016611;28;20033;-82
2023/04/03 08:37:05;;;;;;;5.97;1.58;;;6.70;94.90;;;;;;5016650;28;20049;-82
2023/04/03 08:39:32;;;;;;;5.30;1.52;;;6.70;93.20;;;;;;5033003;28;20049;-82
2023/04/03 08:42:02;;;;;;;3.65;1.27;;;6.80;93.90;;;;;;5000057;28;20052;-82
2023/04/03 08:44:46;;;;;;;3.95;1.13;;;6.90;91.60;;;;;;5032947;28;20540;-81
2023/04/03 08:47:20;;;;;;;4.43;1.27;;;7.10;93.50;;;;;;5016985;28;20046;-82
2023/04/03 08:49:53;;;;;;;5.47;1.35;;;7.20;90.90;;;;;;5033126;28;20045;-82
2023/04/03 08:52:40;;;;;;;5.03;1.33;;;7.20;90.50;;;;;;5032420;28;20053;-82
2023/04/03 08:55:29;;;;;;;4.95;1.50;;;7.60;86.90;;;;;;5016055;28;20489;-82
2023/04/03 08:58:06;;;;;;;3.35;1.20;;;7.50;91.10;;;;;;5033403;28;20045;-81
2023/04/03 09:00:48;;;;;;;4.82;1.38;;;7.70;87.60;;;;;;5034971;28;20042;-83
2023/04/03 09:03:16;;;;;;;5.43;1.25;;;7.80;90.90;;;;;;5036701;28;20049;-81
2023/04/03 09:06:02;;;;;;;6.13;1.50;;;7.70;83.10;;;;;;5035442;28;20045;-82
2023/04/03 09:08:36;;;;;;;3.00;1.02;;;7.80;91.40;;;;;;5053269;28;20041;-81
2023/04/03 09:11:11;;;;;;;3.72;1.20;;;7.80;82.50;;;;;;5053358;28;20393;-81
2023/04/03 09:13:54;;;;;;;3.47;1.10;;;7.70;79.80;;;;;;5020078;28;20052;-80
2023/04/03 09:16:47;;;;;;;3.28;1.20;;;7.70;78.10;;;;;;5036483;28;20053;-81
2023/04/03 09:19:21;;;;;;;4.40;1.30;;;7.90;83.40;;;;;;5020329;28;20041;-82
2023/04/03 09:21:46;;;;;;;6.75;1.50;;;8.00;78.80;;;;;;5031820;28;20096;-82
2023/04/03 09:24:15;;;;;;;5.00;1.60;;;8.10;86.10;;;;;;5016607;28;20385;-81
2023/04/03 09:26:47;;;;;;;5.25;1.40;;;8.30;84.10;;;;;;5017057;28;20052;-81
2023/04/03 09:29:22;;;;;;;4.93;1.42;;;8.40;84.20;;;;;;5016844;28;20045;-82
2023/04/03 09:31:58;;;;;;;5.15;1.50;;;8.40;79.80;;;;;;4999780;28;20038;-82
2023/04/03 09:34:26;;;;;;;4.75;1.38;;;8.50;75.30;;;;;;5016671;28;20487;-80
2023/04/03 09:36:57;;;;;;;3.40;1.17;;;8.50;81.50;;;;;;5000061;28;20583;-81
2023/04/03 09:39:27;;;;;;;4.28;1.30;;;8.60;80.20;;;;;;4999779;28;20057;-80
2023/04/03 09:42:05;;;;;;;5.50;1.48;;;8.60;78.40;;;;;;4999597;28;20136;-81
2023/04/03 09:44:42;;;;;;;4.35;1.30;;;8.80;72.70;;;;;;5015694;28;20076;-82
2023/04/03 09:47:26;;;;;;;4.88;1.10;;;8.90;74.20;;;;;;5016050;28;20453;-81
2023/04/03 09:50:12;;;;;;;5.05;1.20;;;8.90;77.40;;;;;;5016094;28;20050;-80
2023/04/03 09:52:39;;;;;;;5.30;1.33;;;9.10;77.90;;;;;;5010962;28;20489;-80
2023/04/03 09:55:17;;;;;;;4.88;1.45;;;9.30;71.00;;;;;;5052474;28;20432;-81
2023/04/03 09:57:48;;;;;;;5.07;1.30;;;9.40;75.10;;;;;;5035709;28;20503;-81
2023/04/03 10:00:28;;;;;;;4.30;1.20;;;9.40;76.50;;;;;;5002948;28;20132;-81
2023/04/03 10:02:58;;;;;;;5.65;1.30;;;9.50;69.20;;;;;;5035649;28;20089;-81
2023/04/03 10:05:41;;;;;;;4.30;1.45;;;9.50;72.90;;;;;;5035244;28;20545;-81
2023/04/03 10:08:13;;;;;;;4.25;1.40;;;9.60;69.90;;;;;;5035787;28;20401;-80
2023/04/03 10:10:47;;;;;;;6.85;1.30;;;9.80;69.80;;;;;;5051950;28;20049;-81
2023/04/03 10:13:20;;;;;;;4.78;1.10;;;9.70;65.30;;;;;;5034789;28;20049;-80
2023/04/03 10:16:09;;;;;;;4.20;1.00;;;9.90;69.60;;;;;;5035984;28;20049;-81
2023/04/03 10:18:46;;;;;;;4.93;1.20;;;9.90;65.40;;;;;;5019252;28;20393;-81
2023/04/03 10:21:50;;;;;;;4.45;1.40;;;9.90;61.30;;;;;;5051580;28;20084;-82
2023/04/03 10:24:28;;;;;;;4.47;1.05;;;9.90;62.70;;;;;;5036511;28;20119;-81
2023/04/03 10:27:10;;;;;;;4.35;1.00;;;10.10;62.20;;;;;;5035304;28;20052;-82
2023/04/03 10:29:48;;;;;;;4.65;1.08;;;10.10;56.40;;;;;;5035271;28;20370;-82
2023/04/03 10:32:37;;;;;;;3.63;1.10;;;10.20;57.70;;;;;;5034220;28;20042;-81
2023/04/03 10:35:24;;;;;;;3.00;0.80;;;10.10;55.30;;;;;;5035280;28;20075;-80
2023/04/03 10:38:09;;;;;;;2.90;0.82;;;10.00;54.50;;;;;;5018673;28;20199;-80
2023/04/03 10:40:55;;;;;;;4.95;1.10;;;9.80;53.80;;;;;;5018737;28;20493;-81
2023/04/03 10:43:44;;;;;;;4.13;1.25;;;9.70;57.70;;;;;;5034990;28;20050;-81
2023/04/03 10:46:19;;;;;;;1.48;0.70;;;9.80;53.10;;;;;;5035001;28;20056;-80
2023/04/03 10:48:57;;;;;;;4.10;1.17;;;9.80;53.80;;;;;;5018354;28;20049;-81
2023/04/03 10:51:45;;;;;;;5.57;1.17;;;9.70;55.50;;;;;;5034650;28;20049;-81
2023/04/03 10:54:21;;;;;;;4.05;1.10;;;9.70;54.40;;;;;;5034518;28;20092;-78
2023/04/03 10:57:16;;;;;;;3.53;1.00;;;9.80;54.50;;;;;;5034529;28;20057;-78
2023/04/03 10:59:47;;;;;;;4.05;1.20;;;10.00;55.20;;;;;;5033423;28;20497;-79
2023/04/03 11:02:27;;;;;;;5.68;1.38;;;10.10;54.40;;;;;;5034746;28;20088;-78
2023/04/03 11:05:09;;;;;;;3.30;1.10;;;10.10;52.10;;;;;;5018075;28;20115;-80
2023/04/03 11:07:42;;;;;;;3.97;1.10;;;10.00;52.80;;;;;;5017729;28;20052;-79
2023/04/03 11:10:42;;;;;;;2.55;0.80;;;10.10;56.40;;;;;;5034643;28;20171;-78
2023/04/03 11:13:11;;;;;;;;;;;10.10;52.00;;;;;;4994163;28;20509;-78
2023/04/03 11:15:37;;;;;;;5.15;1.20;;;10.00;55.30;;;;;;5034517;28;19967;-79
2023/04/03 11:18:11;;;;;;;3.97;1.23;;;9.90;51.60;;;;;;5034382;28;20088;-79
2023/04/03 11:20:40;;;;;;;5.57;1.40;;;9.80;53.10;;;;;;5035516;28;20048;-80
2023/04/03 11:23:22;;;;;;;5.63;1.50;;;9.70;53.20;;;;;;5018150;28;20056;-80
2023/04/03 11:25:52;;;;;;;3.78;1.20;;;10.00;58.20;;;;;;5017244;28;20103;-79
2023/04/03 11:28:18;;;;;;;5.30;1.50;;;10.10;55.70;;;;;;5034682;28;20132;-79
2023/04/03 11:31:01;;;;;;;4.95;1.33;;;10.10;56.70;;;;;;5018071;28;20084;-79
2023/04/03 11:33:45;;;;;;;5.63;1.30;;;10.30;57.70;;;;;;5034141;28;20045;-80
2023/04/03 11:36:53;;;;;;;4.00;1.10;;;10.20;53.60;;;;;;5017674;28;20045;-79
2023/04/03 11:39:22;;;;;;;3.50;0.82;;;10.10;53.90;;;;;;5017519;28;20444;-78
2023/04/03 11:41:49;;;;;;;4.72;1.30;;;10.00;51.60;;;;;;5033796;28;20052;-80
2023/04/03 11:44:37;;;;;;;5.10;1.20;;;10.00;56.80;;;;;;5034261;28;20049;-79
2023/04/03 11:47:05;;;;;;;4.85;1.50;;;9.70;54.10;;;;;;5033789;28;20057;-80
2023/04/03 11:49:50;;;;;;;3.92;1.23;;;9.80;54.20;;;;;;5017047;28;20061;-79
2023/04/03 11:52:38;;;;;;;4.05;1.20;;;9.80;54.20;;;;;;5033067;28;20432;-79
2023/04/03 11:55:21;;;;;;;5.05;1.30;;;10.00;53.00;;;;;;5034061;28;20493;-79
2023/04/03 11:58:09;;;;;;;3.40;1.20;;;10.20;54.50;;;;;;5033652;28;20485;-81
2023/04/03 12:00:49;;;;;;;4.00;1.17;;;10.00;51.70;;;;;;5033678;28;20504;-80
2023/04/03 12:03:24;;;;;;;3.95;1.23;;;10.00;52.30;;;;;;5033814;28;20053;-79
2023/04/03 12:06:16;;;;;;;4.53;1.30;;;10.20;53.00;;;;;;5033826;28;20049;-79
2023/04/03 12:08:42;;;;;;;3.88;1.13;;;10.30;54.00;;;;;;5033730;28;20481;-78
2023/04/03 12:13:56;;;;;;;4.10;1.27;;;10.50;58.50;;;;;;5032838;28;20412;-80
2023/04/03 12:16:31;;;;;;;3.78;1.10;;;10.30;53.30;;;;;;5017324;28;20055;-78
2023/04/03 12:19:15;;;;;;;3.75;1.20;;;10.30;55.90;;;;;;5033156;28;20054;-79
2023/04/03 12:21:56;;;;;;;4.97;1.40;;;10.20;56.20;;;;;;5016356;28;20103;-79
2023/04/03 12:24:27;;;;;;;4.30;1.30;;;10.20;52.60;;;;;;5033253;28;20052;-78
2023/04/03 12:26:59;;;;;;;4.13;1.20;;;10.30;55.70;;;;;;5033373;28;20393;-78
2023/04/03 12:29:28;;;;;;;;;;;10.30;55.40;;;;;;5050243;28;20058;-79
2023/04/03 12:32:07;;;;;;;5.05;1.40;;;10.30;52.90;;;;;;5033009;28;19921;-79
2023/04/03 12:34:57;;;;;;;4.22;1.00;;;10.20;57.80;;;;;;5050339;28;20467;-78
2023/04/03 12:38:04;;;;;;;3.63;1.20;;;10.30;54.90;;;;;;5053507;28;20041;-78
2023/04/03 12:40:42;;;;;;;3.55;1.25;;;10.30;55.80;;;;;;5054038;28;20140;-80
2023/04/03 12:43:37;;;;;;;4.38;1.35;;;10.20;55.40;;;;;;5054109;28;20042;-79
2023/04/03 12:46:11;;;;;;;4.05;1.23;;;10.10;54.70;;;;;;5036969;28;20500;-80
2023/04/03 12:48:50;;;;;;;5.50;1.50;;;10.20;53.00;;;;;;5037032;28;20049;-80
2023/04/03 12:51:34;;;;;;;3.10;1.05;;;9.90;54.70;;;;;;5020792;28;20065;-80
2023/04/03 12:54:29;;;;;;;5.00;1.35;;;10.10;51.50;;;;;;5020115;28;20057;-79
2023/04/03 12:57:17;;;;;;;4.30;1.35;;;10.00;52.00;;;;;;5027690;28;20060;-79
2023/04/03 12:59:48;;;;;;;;;;;10.00;55.00;;;;;;5021398;28;20045;-80
2023/04/03 13:02:28;;;;;;;4.72;1.30;;;10.10;56.50;;;;;;5020415;28;19921;-80
2023/04/03 13:05:08;;;;;;;4.57;1.50;;;10.20;52.90;;;;;;5036689;28;20197;-80
2023/04/03 13:07:40;;;;;;;7.05;1.50;;;10.10;55.80;;;;;;5020173;28;20079;-81
2023/04/03 13:10:17;;;;;;;4.70;1.40;;;10.20;55.90;;;;;;5037316;28;20119;-80
2023/04/03 13:12:48;;;;;;;3.58;1.30;;;10.20;52.30;;;;;;5020371;28;20053;-79
2023/04/03 13:15:25;;;;;;;4.45;1.63;;;10.20;55.70;;;;;;5020448;28;20440;-80